Bei Facebook empfehlenBei Twitter postenGoogle plusPinterest

Das Wetter im Erzgebirge am 05.05.2015

Wetter und Klima am 05.05.2015 Holzhau im Erzgebirge (630m ü.NN)
Letzte gemessene Temperatur und Uhrzeit der Messung23:45:00 Uhr12.80 °C
Temperatur (Maximum / Höchstwert) und Uhrzeit der Messung15:30:00 Uhr22.10 °C
Temperatur (Minimum / Tiefstwert) und Uhrzeit der Messung00:15:008.80 °C
Errechneter Absolutwert der Temperaturschwankungen zwischen Tmin und Tmax des Tages13.30 K
Errechnete Tagesmitteltemperatur16.32083 °C
Gesamt - Niederschlag des Tages (in flüssiger Form)0.52 Liter / m²
Luftdruck (Maximum / Höchstwert) und Zeitpunkt der Messung23:45:00 Uhr1010.40 hPa
Luftdruck (Minimum / Tiefstwert) und Zeitpunkt der Messung10:00:00 Uhr1005.50 hPa
Errechneter Absolutwert der Luftdruckschwankungen des Tages4.90 hPa
Höchste gemessene Windgeschwindigkeit und Uhrzeit der Messung12:45:00 Uhr9.00 km/h
Errechnete Windhäufigkeit in Relation zu den Messwerten des Tages12.50000 %
Niedrigste Windkühle (Windchill) und Zeitpunkt der Messung00:15:00 Uhr8.80 °C
Taupunkt (Maximum / Höchstwert) und Uhrzeit der Messung18:00:00 Uhr15.90 °C
Taupunkt (Minimum / Tiefstwert) und Uhrzeit der Messung00:00:006.70 °C
Anzahl der automatisch eingelesenen Messwerte 96

Detaillierte Wetter- und Klima- Messwerte für den 05.05.2015 in Holzhau im Erzgebirge (630m ü.NN)
ZeitTemperaturLuftdruckRel. LuftfeuchteWindWindrichtungWindchillTaupunktNiederschlag l/m²
23:45:0012.80 °C1010.40 hPa90.00 %11.20 °C0.52
23:30:0012.90 °C1010.20 hPa89.00 %11.10 °C0.52
23:15:0012.90 °C1009.90 hPa89.00 %11.10 °C0.52
23:00:0013.10 °C1009.70 hPa88.00 %11.20 °C0.52
22:45:0013.20 °C1009.30 hPa86.00 %10.90 °C0.52
22:30:0013.60 °C1009.10 hPa85.00 %11.10 °C0.52
22:15:0013.80 °C1009.70 hPa84.00 %11.10 °C0.52
22:00:0013.50 °C1009.40 hPa84.00 %10.90 °C0.52
21:45:0014.00 °C1008.30 hPa82.00 %11.00 °C 
21:30:0014.50 °C1008.60 hPa80.00 %11.10 °C 
21:15:0014.60 °C1008.40 hPa79.00 %11.00 °C 
21:00:0015.80 °C1008.30 hPa74.00 %11.20 °C 
20:45:0016.60 °C1008.30 hPa71.00 %11.30 °C 
20:30:0016.60 °C1008.00 hPa72.00 %11.50 °C 
20:15:0016.70 °C1007.80 hPa75.00 %12.30 °C 
20:00:0016.90 °C1007.40 hPa76.00 %12.60 °C 
19:45:0017.50 °C1007.50 hPa73.00 %12.60 °C 
19:30:0018.30 °C1007.30 hPa70.00 %12.70 °C 
19:15:0019.10 °C1007.20 hPa68.00 %13.10 °C 
19:00:0019.60 °C1007.20 hPa73.00 %14.60 °C 
18:45:0020.30 °C1007.10 hPa73.00 %15.30 °C 
18:30:0020.80 °C1007.10 hPa72.00 %15.60 °C 
18:15:0021.20 °C1007.10 hPa70.00 %15.50 °C 
18:00:0021.60 °C1007.00 hPa70.00 %15.90 °C 
17:45:0021.30 °C1007.00 hPa71.00 %15.80 °C 
17:30:0020.80 °C1007.10 hPa72.00 %15.60 °C 
17:15:0020.50 °C1006.90 hPa72.00 %15.30 °C 
17:00:0020.90 °C1006.70 hPa69.00 %3.24 km/hWSW20.90 °C15.00 °C 
16:45:0021.30 °C1006.90 hPa70.00 %15.60 °C 
16:30:0021.20 °C1006.70 hPa68.00 %15.10 °C 
16:15:0021.50 °C1006.50 hPa68.00 %7.56 km/hS22.50 °C15.30 °C 
16:00:0021.60 °C1006.40 hPa67.00 %15.20 °C 
15:45:0021.90 °C1006.20 hPa66.00 %15.30 °C 
15:30:0022.10 °C1006.10 hPa66.00 %15.50 °C 
15:15:0022.10 °C1006.10 hPa66.00 %15.50 °C 
15:00:0021.70 °C1006.10 hPa67.00 %15.30 °C 
14:45:0021.10 °C1006.20 hPa68.00 %15.00 °C 
14:30:0020.40 °C1006.10 hPa69.00 %14.50 °C 
14:15:0020.40 °C1006.10 hPa68.00 %14.30 °C 
14:00:0020.20 °C1006.30 hPa69.00 %14.30 °C 
13:45:0019.60 °C1006.30 hPa69.00 %13.80 °C 
13:30:0019.90 °C1006.10 hPa69.00 %14.00 °C 
13:15:0020.30 °C1006.50 hPa68.00 %14.20 °C 
13:00:0020.80 °C1006.20 hPa67.00 %14.50 °C 
12:45:0021.20 °C1006.20 hPa67.00 %9.00 km/hONO22.10 °C14.80 °C 
12:30:0021.50 °C1006.00 hPa66.00 %14.90 °C 
12:15:0021.20 °C1006.10 hPa66.00 %14.60 °C 
12:00:0020.50 °C1006.10 hPa69.00 %14.60 °C 
11:45:0020.10 °C1006.10 hPa68.00 %14.00 °C 
11:30:0020.40 °C1005.90 hPa68.00 %14.30 °C 
11:15:0020.20 °C1005.80 hPa69.00 %14.30 °C 
11:00:0020.10 °C1005.60 hPa70.00 %14.50 °C 
10:45:0019.80 °C1005.90 hPa70.00 %14.20 °C 
10:30:0019.50 °C1005.60 hPa72.00 %14.30 °C 
10:15:0018.90 °C1005.60 hPa75.00 %14.40 °C 
10:00:0018.20 °C1005.50 hPa76.00 %13.90 °C 
09:45:0017.60 °C1005.70 hPa78.00 %2.52 km/hSSO17.60 °C13.70 °C 
09:30:0016.90 °C1005.70 hPa79.00 %7.56 km/hSO17.20 °C13.20 °C 
09:15:0016.90 °C1005.70 hPa78.00 %13.00 °C 
09:00:0017.20 °C1005.90 hPa77.00 %13.10 °C 
08:45:0016.90 °C1005.70 hPa77.00 %4.32 km/hOSO16.90 °C12.80 °C 
08:30:0016.40 °C1005.70 hPa79.00 %2.16 km/hNO16.40 °C12.80 °C 
08:15:0015.50 °C1005.90 hPa80.00 %12.10 °C 
08:00:0015.00 °C1006.10 hPa81.00 %11.80 °C 
07:45:0014.60 °C1006.00 hPa83.00 %11.70 °C 
07:30:0014.20 °C1005.90 hPa83.00 %11.40 °C 
07:15:0014.00 °C1005.80 hPa84.00 %11.30 °C 
07:00:0013.90 °C1006.10 hPa84.00 %11.20 °C 
06:45:0013.80 °C1006.10 hPa85.00 %6.84 km/hO13.70 °C11.30 °C 
06:30:0013.40 °C1006.10 hPa85.00 %10.90 °C 
06:15:0013.30 °C1005.90 hPa84.00 %2.52 km/hO13.30 °C10.70 °C 
06:00:0013.20 °C1006.10 hPa83.00 %10.40 °C 
05:45:0013.10 °C1006.20 hPa82.00 %10.10 °C 
05:30:0013.30 °C1006.10 hPa82.00 %8.64 km/hOSO12.80 °C10.30 °C 
05:15:0013.30 °C1006.20 hPa82.00 %3.24 km/hSO13.30 °C10.30 °C 
05:00:0013.20 °C1006.40 hPa81.00 %4.68 km/hO13.20 °C10.00 °C 
04:45:0013.30 °C1006.80 hPa81.00 %10.10 °C 
04:30:0013.10 °C1006.90 hPa82.00 %10.10 °C 
04:15:0012.90 °C1006.90 hPa84.00 %10.30 °C 
04:00:0013.10 °C1007.10 hPa85.00 %10.60 °C 
03:45:0013.10 °C1007.50 hPa85.00 %10.60 °C 
03:30:0012.90 °C1007.50 hPa86.00 %10.60 °C 
03:15:0012.60 °C1007.40 hPa87.00 %10.50 °C 
03:00:0012.10 °C1007.50 hPa88.00 %10.20 °C 
02:45:0011.60 °C1007.60 hPa88.00 %9.70 °C 
02:30:0011.10 °C1007.50 hPa88.00 %9.20 °C 
02:15:0010.40 °C1007.40 hPa88.00 %8.50 °C 
02:00:0010.20 °C1007.70 hPa88.00 %8.30 °C 
01:45:009.50 °C1008.10 hPa87.00 %7.40 °C 
01:30:009.30 °C1008.40 hPa86.00 %7.10 °C 
01:15:009.50 °C1008.80 hPa86.00 %7.30 °C 
01:00:009.40 °C1008.90 hPa86.00 %7.20 °C 
00:45:009.20 °C1008.90 hPa87.00 %7.20 °C 
00:30:009.00 °C1009.00 hPa87.00 %7.00 °C 
00:15:008.80 °C1009.30 hPa87.00 %6.80 °C 
00:00:008.90 °C1009.40 hPa86.00 %6.70 °C 

Permanenter Link zu dieser Seite: Wetter im Erzgebirge am 05.05.2015
Performance-Info: Die Erstellung der Seite / Statistik(en) / Tabelle(n) erforderte 5 Datenbankserver-Abfrage(n) und dauerte 101 Millisekunden. (Dieser Messwert ist von der Gesamt-Auslastung des Servers abhängig.)
Erzgebirge - Wetter | Erzgebirge - Wetter (Mobilgeräte) | Komplette Klimadatenbank